createdAt,value
2022-08-07T04:29:58.548Z,50.77441
2022-08-07T04:32:44.827Z,51.05762
2022-08-07T04:37:52.742Z,51.24805
2022-08-07T04:42:35.576Z,51.16895
2022-08-07T04:47:58.610Z,51.10059
2022-08-07T04:52:50.991Z,51.17578
2022-08-07T04:58:09.709Z,51.08496
2022-08-07T05:02:36.974Z,51.05664
2022-08-07T05:07:48.604Z,50.99023
2022-08-07T05:12:39.384Z,50.87207
2022-08-07T05:17:52.839Z,50.91895
2022-08-07T05:22:38.489Z,50.87988
2022-08-07T05:28:02.910Z,50.70215
2022-08-07T05:32:36.243Z,50.50586
2022-08-07T05:37:40.941Z,50.51074
2022-08-07T05:42:36.952Z,50.33691
2022-08-07T05:47:38.135Z,50.08496
2022-08-07T05:52:35.848Z,48.98145
2022-08-07T05:57:38.113Z,47.68555
2022-08-07T06:02:37.038Z,46.65918
2022-08-07T06:08:14.109Z,45.6084
2022-08-07T06:12:35.785Z,44.73535
2022-08-07T06:17:37.610Z,43.77051
2022-08-07T06:22:40.111Z,42.93457
2022-08-07T06:27:44.224Z,42.16602
2022-08-07T06:32:35.693Z,41.62891
2022-08-07T06:37:43.463Z,40.9043
2022-08-07T06:42:38.747Z,40.4707
2022-08-07T06:47:38.802Z,40.0293
2022-08-07T06:52:38.703Z,39.47363
2022-08-07T06:57:43.574Z,38.91016
2022-08-07T07:02:53.496Z,38.4873
2022-08-07T07:07:59.591Z,38.25391
2022-08-07T07:12:41.697Z,38.11621
2022-08-07T07:17:39.043Z,38.1084
2022-08-07T07:22:43.371Z,37.86523
2022-08-07T07:27:56.280Z,37.55957
2022-08-07T07:32:38.542Z,37.21191
2022-08-07T07:37:47.323Z,37.21484
2022-08-07T07:42:39.466Z,37.17773
2022-08-07T07:47:51.761Z,37.17969
2022-08-07T07:52:36.210Z,37.31934
2022-08-07T07:57:53.413Z,37.03125
2022-08-07T08:02:36.792Z,36.69336
2022-08-07T08:07:42.497Z,36.4209
2022-08-07T08:12:52.293Z,35.75586
2022-08-07T08:17:57.180Z,35.62598
2022-08-07T08:22:55.745Z,35.08789
2022-08-07T08:27:37.586Z,34.90039
2022-08-07T08:32:38.721Z,34.39844
2022-08-07T08:38:00.716Z,34.04688
2022-08-07T08:42:40.374Z,33.80664
2022-08-07T08:47:52.076Z,33.50586
2022-08-07T08:52:40.811Z,33.03223
2022-08-07T08:57:39.143Z,32.6748
2022-08-07T09:02:41.820Z,32.51855
2022-08-07T09:07:46.521Z,32.05859
2022-08-07T09:12:53.258Z,31.57031
2022-08-07T09:17:58.879Z,31.33789
2022-08-07T09:24:34.080Z,31.27441
2022-08-07T09:27:59.544Z,30.91211
2022-08-07T09:32:47.076Z,30.70117
2022-08-07T09:37:48.495Z,30.45801
2022-08-07T09:42:45.584Z,30.14453
2022-08-07T09:47:58.829Z,29.88281
2022-08-07T09:52:39.187Z,29.83984
2022-08-07T09:57:47.206Z,29.66992
2022-08-07T10:02:55.776Z,29.27344
2022-08-07T10:07:52.718Z,29.26563
2022-08-07T10:12:52.636Z,28.81055
2022-08-07T10:18:02.966Z,28.98242
2022-08-07T10:22:51.280Z,28.87598
2022-08-07T10:27:46.305Z,28.7793
2022-08-07T10:32:52.402Z,28.49707
2022-08-07T10:38:00.263Z,28.74121
2022-08-07T10:42:38.519Z,28.55859
2022-08-07T10:47:53.830Z,27.94434
2022-08-07T10:52:37.668Z,27.61621
2022-08-07T10:57:38.283Z,27.84375
2022-08-07T11:02:40.106Z,28.31445
2022-08-07T11:07:59.589Z,28.53613
2022-08-07T11:12:38.810Z,28.22852
2022-08-07T11:17:43.303Z,27.52637
2022-08-07T11:22:45.866Z,27.39453
2022-08-07T11:28:02.405Z,26.72949
2022-08-07T11:32:40.597Z,26.54004
2022-08-07T11:37:58.116Z,25.95215
2022-08-07T11:42:48.436Z,27.12012
2022-08-07T11:47:56.012Z,26.47656
2022-08-07T11:52:43.496Z,26.1084
2022-08-07T11:57:58.155Z,25.7627
2022-08-07T12:02:52.688Z,25.15625
2022-08-07T12:07:39.121Z,25.74316
2022-08-07T12:12:40.999Z,25.4873
2022-08-07T12:17:58.761Z,25.44727
2022-08-07T12:22:56.412Z,25.41113
2022-08-07T12:28:09.546Z,25.9248
2022-08-07T12:32:43.812Z,26.46191
2022-08-07T12:38:09.721Z,26.74609
2022-08-07T12:42:36.940Z,26.04883
2022-08-07T12:47:40.550Z,26.57227
2022-08-07T12:52:46.104Z,25.95215
2022-08-07T12:58:01.202Z,25.62012
2022-08-07T13:02:51.594Z,25.71484
2022-08-07T13:08:12.581Z,26.00879
2022-08-07T13:12:41.969Z,25.94434
2022-08-07T13:17:46.357Z,26.26074
2022-08-07T13:22:39.362Z,26.14941
2022-08-07T13:28:13.671Z,26.35645
2022-08-07T13:32:42.380Z,25.96387
2022-08-07T13:37:41.285Z,25.7373
2022-08-07T13:42:39.701Z,25.52344
2022-08-07T13:48:05.941Z,25.80469
2022-08-07T13:52:41.030Z,25.02148
2022-08-07T13:57:38.398Z,25.42773
2022-08-07T14:02:40.901Z,24.86621
2022-08-07T14:07:36.953Z,25.12598
2022-08-07T14:12:49.440Z,24.65039
2022-08-07T14:18:15.936Z,24.77148
2022-08-07T14:22:38.069Z,24.9209
2022-08-07T14:28:10.875Z,24.85547
2022-08-07T14:32:42.655Z,25.43164
2022-08-07T14:37:39.227Z,25.56445
2022-08-07T14:43:56.001Z,25.54492
2022-08-07T14:47:36.382Z,25.7041
2022-08-07T14:52:37.753Z,26.14453
2022-08-07T14:57:58.151Z,25.83301
2022-08-07T15:02:36.904Z,25.73535
2022-08-07T15:07:47.632Z,26.16797
2022-08-07T15:12:42.084Z,26.36914
2022-08-07T15:17:54.867Z,26.62793
2022-08-07T15:22:39.055Z,26.8916
2022-08-07T15:27:37.928Z,27.01563
2022-08-07T15:32:39.569Z,26.97168
2022-08-07T15:38:17.886Z,27.50586
2022-08-07T15:42:57.752Z,27.41113
2022-08-07T15:48:01.406Z,27.92773
2022-08-07T15:52:38.462Z,28.10938
2022-08-07T15:57:47.927Z,28.41016
2022-08-07T16:02:38.829Z,28.70215
2022-08-07T16:08:31.976Z,28.59375
2022-08-07T16:12:40.455Z,28.87793
2022-08-07T16:18:02.611Z,29.02246
2022-08-07T16:22:55.581Z,29.10938
2022-08-07T16:27:39.869Z,29.15039
2022-08-07T16:32:37.187Z,29.51758
2022-08-07T16:38:06.207Z,29.61621
2022-08-07T16:42:52.012Z,29.82813
2022-08-07T16:47:52.938Z,30.07324
2022-08-07T16:52:52.342Z,30.28516
2022-08-07T16:58:02.035Z,30.56641
2022-08-07T17:02:52.332Z,30.74121
2022-08-07T17:07:54.994Z,31.03125
2022-08-07T17:12:44.419Z,31.37988
2022-08-07T17:17:48.047Z,31.69336
2022-08-07T17:22:38.829Z,31.92383
2022-08-07T17:27:51.006Z,32.20117
2022-08-07T17:32:52.185Z,32.39551
2022-08-07T17:38:06.002Z,32.62598
2022-08-07T17:42:58.468Z,32.87598
2022-08-07T17:47:42.724Z,33.00977
2022-08-07T17:52:40.020Z,33.24707
2022-08-07T17:57:58.387Z,33.25098
2022-08-07T18:02:39.749Z,33.70996
2022-08-07T18:07:46.630Z,33.93457
2022-08-07T18:12:43.897Z,34.10059
2022-08-07T18:18:45.957Z,34.14063
2022-08-07T18:22:37.639Z,34.34082
2022-08-07T18:27:52.826Z,34.63574
2022-08-07T18:32:47.222Z,34.87207
2022-08-07T18:38:57.600Z,35.04785
2022-08-07T18:42:43.289Z,35.23438
2022-08-07T18:47:45.027Z,35.43066
2022-08-07T18:52:55.125Z,35.31348
2022-08-07T18:57:41.927Z,35.61426
2022-08-07T19:02:43.466Z,36.14453
2022-08-07T19:07:52.880Z,36.62598
2022-08-07T19:12:53.707Z,36.9375
2022-08-07T19:17:59.215Z,37.47754
2022-08-07T19:22:40.182Z,37.90332
2022-08-07T19:28:56.385Z,38.29297
2022-08-07T19:32:44.327Z,38.62402
2022-08-07T19:37:55.258Z,39.23438
2022-08-07T19:42:40.407Z,39.49902
2022-08-07T19:47:36.430Z,39.8916
2022-08-07T19:52:35.586Z,40.26172
2022-08-07T19:58:02.491Z,40.91797
2022-08-07T20:02:39.043Z,41.09668
2022-08-07T20:07:47.762Z,41.45605
2022-08-07T20:12:38.157Z,41.7832
2022-08-07T20:17:38.650Z,42.19141
2022-08-07T20:22:40.643Z,42.49707
2022-08-07T20:27:47.540Z,42.71973
2022-08-07T20:32:40.188Z,42.84277
2022-08-07T20:37:55.315Z,43.05664
2022-08-07T20:42:37.177Z,43.2041
2022-08-07T20:47:55.537Z,43.44238
2022-08-07T20:52:51.247Z,43.58984
2022-08-07T20:57:47.533Z,43.72559
2022-08-07T21:02:55.342Z,43.84863
2022-08-07T21:07:35.549Z,44.08789
2022-08-07T21:12:38.044Z,44.30176
2022-08-07T21:18:09.102Z,44.42676
2022-08-07T21:22:36.040Z,44.79199
2022-08-07T21:27:39.810Z,44.79395
2022-08-07T21:32:48.388Z,44.77441
2022-08-07T21:37:59.469Z,45.03809
2022-08-07T21:42:46.800Z,45.09766
2022-08-07T21:47:39.205Z,44.99707
2022-08-07T21:52:45.421Z,45.28418
2022-08-07T21:57:52.777Z,45.39941
2022-08-07T22:02:41.285Z,45.63281
2022-08-07T22:07:58.509Z,45.56543
2022-08-07T22:12:38.964Z,45.64746
2022-08-07T22:17:38.743Z,45.64063
2022-08-07T22:22:44.497Z,45.9834
2022-08-07T22:28:04.968Z,45.99707
2022-08-07T22:32:38.746Z,46.22168
2022-08-07T22:38:04.284Z,46.36133
2022-08-07T22:42:37.450Z,46.27051
2022-08-07T22:47:52.782Z,46.51367
2022-08-07T22:52:54.885Z,46.7334
2022-08-07T22:57:46.364Z,46.72656
2022-08-07T23:03:02.635Z,46.87891
2022-08-07T23:07:42.986Z,47.11914
2022-08-07T23:12:41.433Z,47.06738
2022-08-07T23:17:41.958Z,47.21777
2022-08-07T23:22:42.586Z,47.45898
2022-08-07T23:28:22.558Z,47.43066
2022-08-07T23:34:18.597Z,47.58301
2022-08-07T23:38:00.895Z,47.54199
2022-08-07T23:42:47.040Z,47.56934
2022-08-07T23:47:42.245Z,47.58398
2022-08-07T23:53:01.774Z,47.85254
2022-08-07T23:57:40.297Z,47.73145
